Time;durP1;ratioP1;P1;durP2;ratioP2;P2;SDS_P1;SDS_P2;PMS_P1;PMS_P2;Temp;Humidity;BMP_temperature;BMP_pressure;BME280_temperature;BME280_humidity;BME280_pressure;Samples;Min_cycle;Max_cycle;Signal;HPM_P1;HPM_P2
2023/09/14 00:01:47;;;;;;;3.38;0.73;;;16.40;85.50;;;;;;4974166;28;20467;-82
2023/09/14 00:04:13;;;;;;;10.40;1.35;;;16.50;85.60;;;;;;4973877;28;20462;-82
2023/09/14 00:06:38;;;;;;;5.82;1.05;;;16.40;85.60;;;;;;4974069;28;20023;-81
2023/09/14 00:09:04;;;;;;;4.72;1.10;;;16.40;85.80;;;;;;4956841;28;20030;-81
2023/09/14 00:11:30;;;;;;;4.65;1.02;;;16.40;85.90;;;;;;4974271;28;20023;-82
2023/09/14 00:13:55;;;;;;;8.25;1.02;;;16.40;86.00;;;;;;4974283;28;20030;-82
2023/09/14 00:16:21;;;;;;;6.80;1.17;;;16.50;86.20;;;;;;4974069;28;20479;-82
2023/09/14 00:18:46;;;;;;;7.13;1.17;;;16.50;86.20;;;;;;4974152;28;20401;-83
2023/09/14 00:21:12;;;;;;;7.38;1.13;;;16.30;86.20;;;;;;4973652;28;20126;-82
2023/09/14 00:23:38;;;;;;;2.60;0.82;;;16.40;86.50;;;;;;4973499;28;20059;-82
2023/09/14 00:26:03;;;;;;;5.82;1.20;;;16.50;86.60;;;;;;4956702;28;20027;-82
2023/09/14 00:28:29;;;;;;;6.35;1.08;;;16.40;87.20;;;;;;4973947;28;20023;-82
2023/09/14 00:30:55;;;;;;;4.43;1.13;;;16.40;86.60;;;;;;4973730;28;20460;-81
2023/09/14 00:33:22;;;;;;;6.28;1.27;;;16.30;86.60;;;;;;4973723;28;20023;-81
2023/09/14 00:35:48;;;;;;;6.65;1.17;;;16.50;86.80;;;;;;4973331;28;20050;-81
2023/09/14 00:38:14;;;;;;;5.40;1.40;;;16.50;86.60;;;;;;4973610;28;20031;-81
2023/09/14 00:40:41;;;;;;;3.88;1.17;;;16.40;86.60;;;;;;4956017;28;20022;-81
2023/09/14 00:43:07;;;;;;;5.63;1.48;;;16.50;86.80;;;;;;4972151;28;20041;-82
2023/09/14 00:45:33;;;;;;;6.63;0.90;;;16.50;86.80;;;;;;4973656;28;20026;-82
2023/09/14 00:48:02;;;;;;;4.20;0.82;;;16.50;86.90;;;;;;4973407;28;20023;-81
2023/09/14 00:50:28;;;;;;;8.10;1.23;;;16.40;86.90;;;;;;4973433;28;20069;-81
2023/09/14 00:53:03;;;;;;;8.57;1.25;;;16.50;87.00;;;;;;4973626;28;20137;-83
2023/09/14 00:55:30;;;;;;;6.22;1.17;;;16.40;87.00;;;;;;4973452;28;20025;-81
2023/09/14 00:57:57;;;;;;;3.97;1.00;;;16.40;87.10;;;;;;4973278;28;20023;-81
2023/09/14 01:00:23;;;;;;;6.05;1.50;;;16.40;87.20;;;;;;4973179;28;20019;-80
2023/09/14 01:02:51;;;;;;;6.90;0.90;;;16.50;87.10;;;;;;4973396;28;20039;-81
2023/09/14 01:05:18;;;;;;;4.18;1.00;;;16.40;87.00;;;;;;4955648;28;20035;-81
2023/09/14 01:07:44;;;;;;;6.45;1.58;;;16.40;87.00;;;;;;4956225;28;20429;-81
2023/09/14 01:10:10;;;;;;;6.63;1.55;;;16.40;86.90;;;;;;4973541;28;20388;-82
2023/09/14 01:12:36;;;;;;;7.82;1.30;;;16.40;86.90;;;;;;4973469;28;20043;-83
2023/09/14 01:15:15;;;;;;;5.18;1.02;;;16.40;86.90;;;;;;4973052;28;20087;-80
2023/09/14 01:17:44;;;;;;;5.10;0.85;;;16.40;86.90;;;;;;4973618;28;20051;-81
2023/09/14 01:20:44;;;;;;;4.32;1.10;;;16.50;87.00;;;;;;4973032;28;20022;-81
2023/09/14 01:23:15;;;;;;;7.63;1.10;;;16.40;86.80;;;;;;4972723;28;20065;-81
2023/09/14 01:25:43;;;;;;;7.03;1.00;;;16.40;86.60;;;;;;4971999;28;20031;-81
2023/09/14 01:28:13;;;;;;;5.65;0.80;;;16.40;86.50;;;;;;4973348;28;20354;-81
2023/09/14 01:30:40;;;;;;;8.43;1.13;;;16.50;86.50;;;;;;4972731;28;20038;-81
2023/09/14 01:33:09;;;;;;;9.23;0.88;;;16.40;86.40;;;;;;4973413;28;20049;-82
2023/09/14 01:35:40;;;;;;;7.28;1.27;;;16.40;86.40;;;;;;4972681;28;20031;-81
2023/09/14 01:38:07;;;;;;;5.88;1.25;;;16.50;86.50;;;;;;4955221;28;20449;-82
2023/09/14 01:40:34;;;;;;;3.45;0.90;;;16.40;86.40;;;;;;4973025;28;20023;-82
2023/09/14 01:43:01;;;;;;;9.55;1.80;;;16.40;86.40;;;;;;4972913;28;20061;-82
2023/09/14 01:45:27;;;;;;;6.47;1.30;;;16.40;86.40;;;;;;4955616;28;20019;-81
2023/09/14 01:47:53;;;;;;;3.90;0.95;;;16.30;86.40;;;;;;4976016;28;20031;-81
2023/09/14 01:50:19;;;;;;;4.85;1.05;;;16.30;86.40;;;;;;4976851;28;20054;-81
2023/09/14 01:52:45;;;;;;;7.50;1.67;;;16.30;86.40;;;;;;4976226;28;20031;-81
2023/09/14 01:55:12;;;;;;;4.63;1.02;;;16.20;86.30;;;;;;4958959;28;20050;-81
2023/09/14 01:57:38;;;;;;;4.90;1.00;;;16.30;86.40;;;;;;4976143;28;20492;-80
2023/09/14 02:00:04;;;;;;;6.72;1.30;;;16.20;86.40;;;;;;4976762;28;20029;-82
2023/09/14 02:02:29;;;;;;;9.05;1.60;;;16.20;86.40;;;;;;4991371;28;20043;-81
2023/09/14 02:04:55;;;;;;;6.43;1.27;;;16.20;86.40;;;;;;4976244;28;20489;-82
2023/09/14 02:07:20;;;;;;;3.95;0.85;;;16.20;86.50;;;;;;4975973;28;20039;-81
2023/09/14 02:09:46;;;;;;;4.45;1.02;;;16.20;86.60;;;;;;4976534;28;20370;-81
2023/09/14 02:12:11;;;;;;;5.15;1.10;;;16.10;86.60;;;;;;4958862;28;20035;-82
2023/09/14 02:14:37;;;;;;;6.43;0.93;;;16.00;86.70;;;;;;4975896;28;20035;-81
2023/09/14 02:17:03;;;;;;;5.80;1.10;;;16.10;86.80;;;;;;4975783;28;20031;-82
2023/09/14 02:19:28;;;;;;;12.48;1.52;;;16.00;86.80;;;;;;4976172;28;20114;-81
2023/09/14 02:21:54;;;;;;;6.60;1.00;;;16.00;86.90;;;;;;4976032;28;20022;-82
2023/09/14 02:24:19;;;;;;;8.05;1.27;;;15.90;86.90;;;;;;4975423;28;20051;-82
2023/09/14 02:26:46;;;;;;;5.50;1.05;;;16.00;87.00;;;;;;4974865;28;20023;-82
2023/09/14 02:29:12;;;;;;;4.90;0.90;;;15.90;86.90;;;;;;4990802;28;20035;-82
2023/09/14 02:31:37;;;;;;;8.00;1.92;;;15.90;86.90;;;;;;4958111;28;20045;-81
2023/09/14 02:34:03;;;;;;;4.32;1.30;;;15.90;86.90;;;;;;4975712;28;20038;-82
2023/09/14 02:36:29;;;;;;;4.45;1.13;;;15.80;87.00;;;;;;4975756;28;20034;-81
2023/09/14 02:38:54;;;;;;;5.93;1.42;;;15.90;87.10;;;;;;4975731;28;20247;-82
2023/09/14 02:41:20;;;;;;;6.05;0.93;;;15.70;87.00;;;;;;4976022;28;20501;-82
2023/09/14 02:43:45;;;;;;;5.38;1.10;;;15.70;87.10;;;;;;4975816;28;20043;-81
2023/09/14 02:46:11;;;;;;;5.00;1.02;;;15.70;87.20;;;;;;4975724;28;20034;-81
2023/09/14 02:48:36;;;;;;;7.78;1.25;;;15.60;87.80;;;;;;4975342;28;20030;-81
2023/09/14 02:51:03;;;;;;;5.47;1.20;;;15.60;87.30;;;;;;4957847;28;20019;-82
2023/09/14 02:53:28;;;;;;;4.90;1.10;;;15.50;87.30;;;;;;4975596;28;20049;-82
2023/09/14 02:55:54;;;;;;;5.32;1.15;;;15.50;87.40;;;;;;4975050;28;20505;-81
2023/09/14 02:58:19;;;;;;;4.75;1.10;;;15.50;87.40;;;;;;4975191;28;20058;-80
2023/09/14 03:00:45;;;;;;;3.42;1.05;;;15.40;87.40;;;;;;4975195;28;20042;-81
2023/09/14 03:03:10;;;;;;;5.82;1.13;;;15.40;87.40;;;;;;4975167;28;20543;-81
2023/09/14 03:05:37;;;;;;;4.88;0.93;;;15.40;87.50;;;;;;4975132;28;20065;-82
2023/09/14 03:08:02;;;;;;;4.65;1.30;;;15.30;87.50;;;;;;4957987;28;20607;-81
2023/09/14 03:10:28;;;;;;;8.23;1.80;;;15.30;87.50;;;;;;4975359;28;20038;-81
2023/09/14 03:12:53;;;;;;;4.90;1.10;;;15.30;87.50;;;;;;4989931;28;20070;-80
2023/09/14 03:15:19;;;;;;;5.78;1.10;;;15.20;87.60;;;;;;4957855;28;20113;-82
2023/09/14 03:17:45;;;;;;;6.30;1.10;;;15.20;87.70;;;;;;4975360;28;20085;-82
2023/09/14 03:20:10;;;;;;;4.72;1.40;;;15.20;88.00;;;;;;4976509;28;20072;-80
2023/09/14 03:22:36;;;;;;;5.05;1.20;;;15.10;88.10;;;;;;4978369;28;20039;-81
2023/09/14 03:25:02;;;;;;;6.93;1.50;;;15.10;88.30;;;;;;4988079;28;20693;-80
2023/09/14 03:27:28;;;;;;;8.35;1.50;;;15.10;88.40;;;;;;4987858;28;20054;-80
2023/09/14 03:29:53;;;;;;;3.45;0.88;;;15.00;88.60;;;;;;4990580;28;20125;-80
2023/09/14 03:32:19;;;;;;;4.30;1.15;;;15.00;88.80;;;;;;4992077;28;20050;-81
2023/09/14 03:34:44;;;;;;;6.68;1.35;;;14.90;88.80;;;;;;4991599;28;20027;-80
2023/09/14 03:37:10;;;;;;;5.80;1.27;;;15.00;88.90;;;;;;4972468;28;20046;-81
2023/09/14 03:39:36;;;;;;;4.63;1.33;;;14.90;88.90;;;;;;4975563;28;20389;-81
2023/09/14 03:42:01;;;;;;;5.43;1.23;;;14.90;89.00;;;;;;4975606;28;20093;-81
2023/09/14 03:44:27;;;;;;;4.72;1.10;;;14.80;89.00;;;;;;4956280;28;20244;-81
2023/09/14 03:46:52;;;;;;;3.85;1.08;;;14.80;89.10;;;;;;4974896;28;20050;-81
2023/09/14 03:49:18;;;;;;;7.40;1.30;;;14.80;89.20;;;;;;4974189;28;20041;-81
2023/09/14 03:51:44;;;;;;;9.18;1.23;;;14.70;89.40;;;;;;4974610;28;20038;-81
2023/09/14 03:54:09;;;;;;;6.78;1.83;;;14.80;89.60;;;;;;4974186;28;20537;-81
2023/09/14 03:56:36;;;;;;;5.03;1.25;;;14.60;89.70;;;;;;4974152;28;20397;-81
2023/09/14 03:59:02;;;;;;;4.13;1.50;;;14.60;90.00;;;;;;4974138;28;20054;-81
2023/09/14 04:01:28;;;;;;;6.18;1.92;;;14.50;90.00;;;;;;4974268;28;20066;-81
2023/09/14 04:03:54;;;;;;;8.73;1.27;;;14.50;90.10;;;;;;4956805;28;20471;-82
2023/09/14 04:06:19;;;;;;;5.80;1.40;;;14.50;90.20;;;;;;4973927;28;20031;-82
2023/09/14 04:08:45;;;;;;;6.10;1.48;;;14.50;90.30;;;;;;4973156;28;20039;-80
2023/09/14 04:11:10;;;;;;;6.70;1.20;;;14.40;90.40;;;;;;4974103;28;20046;-81
2023/09/14 04:13:36;;;;;;;4.70;1.10;;;14.40;90.50;;;;;;4972603;28;20037;-82
2023/09/14 04:16:03;;;;;;;6.07;1.10;;;14.40;90.50;;;;;;4974483;28;20031;-82
2023/09/14 04:18:33;;;;;;;4.82;1.10;;;14.30;90.60;;;;;;4957243;28;20061;-82
2023/09/14 04:20:59;;;;;;;8.68;1.48;;;14.30;90.70;;;;;;4974161;28;20039;-81
2023/09/14 04:23:24;;;;;;;6.07;1.30;;;14.20;90.80;;;;;;4974153;28;20061;-81
2023/09/14 04:25:51;;;;;;;7.88;1.10;;;14.20;90.80;;;;;;4973827;28;20068;-82
2023/09/14 04:28:18;;;;;;;6.45;1.40;;;14.20;90.90;;;;;;4973748;28;20073;-83
2023/09/14 04:30:46;;;;;;;7.88;1.75;;;14.20;91.00;;;;;;4974031;28;20045;-83
2023/09/14 04:33:13;;;;;;;8.77;1.30;;;14.20;91.10;;;;;;4973939;28;20034;-82
2023/09/14 04:35:39;;;;;;;4.88;1.30;;;14.10;91.10;;;;;;4973896;28;20122;-82
2023/09/14 04:38:06;;;;;;;7.53;1.25;;;14.10;91.20;;;;;;4973867;28;20066;-84
2023/09/14 04:40:33;;;;;;;6.97;1.00;;;14.10;91.30;;;;;;4973803;28;20085;-85
2023/09/14 04:43:00;;;;;;;5.10;1.42;;;14.10;91.40;;;;;;4973910;28;20439;-83
2023/09/14 04:45:25;;;;;;;9.35;2.00;;;14.00;91.40;;;;;;4974188;28;20023;-84
2023/09/14 04:47:51;;;;;;;10.52;1.52;;;14.00;91.50;;;;;;4973887;28;20085;-84
2023/09/14 04:50:16;;;;;;;4.72;1.23;;;14.00;91.60;;;;;;4988523;28;20034;-83
2023/09/14 04:52:42;;;;;;;6.20;1.25;;;14.00;91.60;;;;;;4973398;28;20026;-83
2023/09/14 04:55:08;;;;;;;6.97;2.10;;;14.00;91.70;;;;;;4975122;28;20026;-85
2023/09/14 04:57:33;;;;;;;5.40;1.52;;;14.00;91.70;;;;;;4975184;28;20027;-84
2023/09/14 04:59:59;;;;;;;6.25;1.20;;;13.90;91.70;;;;;;4981374;28;20083;-84
2023/09/14 05:02:24;;;;;;;2.80;1.02;;;13.90;91.80;;;;;;4992527;28;20503;-84
2023/09/14 05:04:50;;;;;;;8.40;1.63;;;13.90;91.90;;;;;;4992243;28;20469;-84
2023/09/14 05:07:15;;;;;;;8.90;1.38;;;13.90;91.90;;;;;;4992318;28;20034;-84
2023/09/14 05:09:41;;;;;;;4.28;1.38;;;13.80;92.00;;;;;;4974112;28;20447;-85
2023/09/14 05:12:06;;;;;;;6.53;1.40;;;13.80;92.10;;;;;;4974315;28;20030;-84
2023/09/14 05:14:32;;;;;;;9.65;2.13;;;13.80;92.20;;;;;;4992789;28;20026;-84
2023/09/14 05:16:58;;;;;;;6.78;1.25;;;13.80;92.30;;;;;;4975234;28;20113;-84
2023/09/14 05:19:23;;;;;;;6.82;2.03;;;13.80;92.40;;;;;;4975521;28;20030;-83
2023/09/14 05:21:49;;;;;;;5.82;1.80;;;13.80;92.40;;;;;;4991891;28;20037;-84
2023/09/14 05:24:14;;;;;;;7.00;2.53;;;13.80;92.50;;;;;;4992175;28;20076;-83
2023/09/14 05:26:40;;;;;;;5.57;1.90;;;13.80;92.60;;;;;;4992337;28;20072;-83
2023/09/14 05:29:05;;;;;;;4.65;2.05;;;13.90;92.60;;;;;;4975398;28;20034;-84
2023/09/14 05:31:31;;;;;;;7.50;2.05;;;13.90;92.70;;;;;;4992370;28;20030;-85
2023/09/14 05:33:57;;;;;;;10.45;2.25;;;13.80;92.70;;;;;;4992402;28;20034;-84
2023/09/14 05:36:22;;;;;;;8.40;2.38;;;13.80;92.80;;;;;;4991354;28;20022;-84
2023/09/14 05:38:48;;;;;;;8.48;2.05;;;13.80;92.80;;;;;;4991004;28;20030;-83
2023/09/14 05:41:14;;;;;;;6.88;2.00;;;13.80;92.90;;;;;;4991209;28;20488;-83
2023/09/14 05:43:39;;;;;;;6.18;1.70;;;13.90;93.00;;;;;;4974791;28;20041;-82
2023/09/14 05:46:06;;;;;;;7.70;2.13;;;13.90;93.20;;;;;;4992180;28;20038;-83
2023/09/14 05:48:33;;;;;;;8.15;2.55;;;13.90;93.30;;;;;;4992284;28;20559;-84
2023/09/14 05:50:59;;;;;;;10.05;2.30;;;13.90;93.40;;;;;;4992718;28;20077;-83
2023/09/14 05:53:24;;;;;;;6.88;2.03;;;13.90;93.40;;;;;;4974867;28;20042;-85
2023/09/14 05:55:50;;;;;;;6.85;1.85;;;13.90;93.50;;;;;;4974857;28;20033;-85
2023/09/14 05:58:15;;;;;;;6.70;2.50;;;14.00;93.60;;;;;;4992167;28;20129;-85
2023/09/14 06:00:41;;;;;;;8.50;2.67;;;14.00;93.60;;;;;;4992176;28;20544;-85
2023/09/14 06:03:07;;;;;;;9.55;2.45;;;14.00;93.70;;;;;;4992174;28;20034;-85
2023/09/14 06:05:32;;;;;;;8.77;2.50;;;14.00;93.70;;;;;;4992870;28;20065;-83
2023/09/14 06:07:58;;;;;;;9.77;3.25;;;14.00;93.90;;;;;;4992131;28;20392;-84
2023/09/14 06:10:23;;;;;;;9.35;2.75;;;14.00;94.00;;;;;;4992637;28;20679;-85
2023/09/14 06:12:50;;;;;;;7.03;2.33;;;14.10;94.20;;;;;;4990714;28;20130;-86
2023/09/14 06:15:16;;;;;;;11.43;3.05;;;14.10;94.30;;;;;;4991901;28;20489;-86
2023/09/14 06:17:42;;;;;;;6.60;2.17;;;14.20;94.50;;;;;;4992155;28;20026;-83
2023/09/14 06:20:08;;;;;;;6.45;2.60;;;14.20;94.60;;;;;;4992144;28;20164;-84
2023/09/14 06:22:34;;;;;;;15.18;2.92;;;14.20;94.80;;;;;;4992120;28;20057;-83
2023/09/14 06:24:59;;;;;;;9.82;2.60;;;14.20;94.90;;;;;;4991188;28;20084;-82
2023/09/14 06:27:25;;;;;;;9.60;2.85;;;14.30;95.10;;;;;;4991995;28;20026;-83
2023/09/14 06:29:50;;;;;;;10.32;2.70;;;14.30;95.30;;;;;;4991727;28;20481;-85
2023/09/14 06:32:16;;;;;;;7.95;2.20;;;14.40;95.40;;;;;;4992688;28;20500;-83
2023/09/14 06:34:41;;;;;;;7.07;2.55;;;14.40;95.50;;;;;;4995095;28;20023;-83
2023/09/14 06:37:07;;;;;;;7.88;2.90;;;14.50;95.60;;;;;;4995108;28;20027;-84
2023/09/14 06:39:32;;;;;;;7.35;2.78;;;14.50;95.90;;;;;;4995527;28;20484;-83
2023/09/14 06:41:58;;;;;;;8.57;2.95;;;14.60;95.70;;;;;;4995093;28;20057;-83
2023/09/14 06:44:25;;;;;;;6.68;2.47;;;14.60;95.70;;;;;;4995281;28;20062;-83
2023/09/14 06:46:51;;;;;;;5.55;2.35;;;14.70;95.80;;;;;;4977531;28;20150;-84
2023/09/14 06:49:16;;;;;;;7.85;2.63;;;14.80;95.80;;;;;;4995755;28;20097;-83
2023/09/14 06:51:42;;;;;;;7.85;2.05;;;14.80;95.80;;;;;;4996034;28;20027;-83
2023/09/14 06:54:07;;;;;;;8.00;1.98;;;14.80;95.80;;;;;;4995059;28;20030;-83
2023/09/14 06:56:33;;;;;;;7.57;2.25;;;14.90;95.80;;;;;;4994977;28;20035;-83
2023/09/14 06:58:58;;;;;;;8.00;2.20;;;15.00;95.80;;;;;;4994882;28;20132;-83
2023/09/14 07:01:24;;;;;;;10.65;2.75;;;15.00;95.70;;;;;;4994944;28;20583;-84
2023/09/14 07:03:53;;;;;;;10.65;2.03;;;15.10;95.70;;;;;;4995188;28;20520;-84
2023/09/14 07:06:18;;;;;;;7.63;1.77;;;15.10;95.60;;;;;;4994784;28;20033;-83
2023/09/14 07:08:44;;;;;;;9.18;2.45;;;15.10;95.80;;;;;;4994759;28;20026;-85
2023/09/14 07:11:10;;;;;;;5.90;1.73;;;15.20;95.50;;;;;;4994796;28;20034;-84
2023/09/14 07:13:35;;;;;;;11.43;1.70;;;15.30;95.40;;;;;;4994424;28;20097;-82
2023/09/14 07:16:03;;;;;;;5.88;1.65;;;15.30;95.40;;;;;;4995899;28;20481;-82
2023/09/14 07:18:31;;;;;;;4.10;1.88;;;15.40;95.40;;;;;;4977399;28;20109;-83
2023/09/14 07:20:59;;;;;;;9.85;1.88;;;15.50;95.30;;;;;;4994578;28;20073;-84
2023/09/14 07:23:28;;;;;;;4.97;1.65;;;15.60;95.20;;;;;;4994779;28;20065;-83
2023/09/14 07:25:54;;;;;;;4.70;1.55;;;15.70;95.10;;;;;;4993592;28;20029;-83
2023/09/14 07:28:21;;;;;;;8.02;2.17;;;15.60;95.00;;;;;;4994944;28;20030;-82
2023/09/14 07:30:48;;;;;;;7.50;1.83;;;15.80;94.80;;;;;;4995874;28;20030;-84
2023/09/14 07:33:15;;;;;;;5.60;1.60;;;15.80;94.70;;;;;;4995120;28;20026;-84
2023/09/14 07:35:40;;;;;;;8.90;1.60;;;15.90;94.60;;;;;;4993653;28;20022;-83
2023/09/14 07:38:12;;;;;;;8.57;2.42;;;16.00;94.40;;;;;;4976825;28;20030;-82
2023/09/14 07:40:37;;;;;;;6.32;1.42;;;16.00;94.30;;;;;;4995874;28;20485;-84
2023/09/14 07:43:03;;;;;;;6.10;1.73;;;16.10;94.20;;;;;;4996087;28;20041;-82
2023/09/14 07:45:30;;;;;;;7.95;1.60;;;16.20;93.90;;;;;;4997164;28;20034;-82
2023/09/14 07:47:56;;;;;;;6.03;1.55;;;16.20;93.70;;;;;;4996454;28;20030;-84
2023/09/14 07:50:21;;;;;;;6.43;1.50;;;16.30;93.50;;;;;;4996571;28;20484;-83
2023/09/14 07:52:47;;;;;;;5.72;1.60;;;16.30;93.30;;;;;;4997074;28;20030;-83
2023/09/14 07:55:13;;;;;;;6.85;1.60;;;16.30;93.20;;;;;;4996220;28;20027;-82
2023/09/14 07:57:39;;;;;;;6.15;1.70;;;16.40;93.00;;;;;;4996123;28;20033;-82
2023/09/14 08:00:06;;;;;;;7.00;1.67;;;16.50;92.80;;;;;;4978764;28;20397;-83
2023/09/14 08:02:32;;;;;;;9.00;1.65;;;16.50;92.70;;;;;;4993848;28;20037;-83
2023/09/14 08:04:58;;;;;;;7.32;2.03;;;16.60;92.60;;;;;;4995297;28;20248;-83
2023/09/14 08:07:23;;;;;;;7.90;2.35;;;16.70;92.40;;;;;;4978242;28;20496;-84
2023/09/14 08:09:49;;;;;;;7.72;1.73;;;16.70;92.40;;;;;;4995678;28;20027;-83
2023/09/14 08:12:14;;;;;;;5.40;1.80;;;16.80;92.30;;;;;;4995691;28;20031;-83
2023/09/14 08:14:40;;;;;;;6.32;1.88;;;16.80;92.20;;;;;;4993676;28;20102;-83
2023/09/14 08:17:05;;;;;;;7.72;2.00;;;16.90;92.10;;;;;;4994174;28;20092;-84
2023/09/14 08:19:31;;;;;;;10.68;1.98;;;16.90;92.10;;;;;;4996619;28;20031;-84
2023/09/14 08:21:57;;;;;;;9.88;1.88;;;17.00;92.00;;;;;;4997493;28;20033;-83
2023/09/14 08:24:23;;;;;;;5.82;1.98;;;17.00;91.90;;;;;;4995560;28;20070;-82
2023/09/14 08:26:48;;;;;;;8.00;2.17;;;17.00;91.70;;;;;;4995913;28;20473;-84
2023/09/14 08:29:14;;;;;;;5.80;1.95;;;17.10;91.70;;;;;;4995289;28;20532;-83
2023/09/14 08:31:42;;;;;;;9.57;2.10;;;17.10;91.50;;;;;;4995469;28;20500;-84
2023/09/14 08:34:08;;;;;;;8.95;1.85;;;17.20;91.50;;;;;;4995419;28;20032;-83
2023/09/14 08:36:34;;;;;;;9.27;2.28;;;17.30;91.30;;;;;;4995944;28;20028;-83
2023/09/14 08:38:59;;;;;;;15.02;2.22;;;17.30;91.10;;;;;;4996956;28;20031;-83
2023/09/14 08:41:43;;;;;;;7.85;2.05;;;17.30;91.00;;;;;;4980457;28;20065;-82
2023/09/14 08:44:09;;;;;;;7.43;2.05;;;17.40;90.80;;;;;;4998199;28;20136;-83
2023/09/14 08:46:35;;;;;;;9.50;2.28;;;17.40;90.70;;;;;;5000571;28;20058;-82
2023/09/14 08:49:03;;;;;;;7.28;2.05;;;17.50;90.70;;;;;;4998226;28;20030;-84
2023/09/14 08:51:31;;;;;;;8.65;2.03;;;17.60;90.60;;;;;;4997852;28;20041;-84
2023/09/14 08:53:58;;;;;;;10.23;2.13;;;17.60;90.40;;;;;;4995339;28;20038;-82
2023/09/14 08:56:25;;;;;;;10.05;2.10;;;17.70;90.30;;;;;;4996758;28;20030;-82
2023/09/14 08:58:52;;;;;;;7.30;2.70;;;17.70;90.20;;;;;;4996823;28;20384;-85
2023/09/14 09:01:18;;;;;;;8.95;1.90;;;17.80;90.20;;;;;;4996130;28;20057;-84
2023/09/14 09:03:44;;;;;;;6.82;2.15;;;17.90;90.10;;;;;;4993514;28;20073;-83
2023/09/14 09:06:14;;;;;;;10.32;3.10;;;17.90;90.10;;;;;;4997826;28;20022;-83
2023/09/14 09:08:41;;;;;;;8.52;2.53;;;18.00;90.00;;;;;;4996496;28;20031;-84
2023/09/14 09:11:07;;;;;;;9.50;2.47;;;18.10;89.80;;;;;;4996869;28;20019;-84
2023/09/14 09:13:40;;;;;;;8.48;2.90;;;18.10;89.40;;;;;;4998185;28;20562;-83
2023/09/14 09:16:06;;;;;;;7.72;3.00;;;18.20;89.10;;;;;;4995331;28;20540;-83
2023/09/14 09:18:35;;;;;;;8.18;2.78;;;18.30;88.90;;;;;;4994040;28;20113;-85
2023/09/14 09:21:05;;;;;;;10.98;3.03;;;18.40;88.60;;;;;;4994700;28;20050;-84
2023/09/14 09:23:33;;;;;;;7.47;2.20;;;18.40;88.40;;;;;;4994591;28;20082;-84
2023/09/14 09:26:00;;;;;;;9.00;2.83;;;18.40;88.00;;;;;;4993378;28;20511;-84
2023/09/14 09:28:30;;;;;;;7.88;2.70;;;18.40;87.80;;;;;;4993269;28;20033;-84
2023/09/14 09:30:56;;;;;;;9.48;2.55;;;18.50;87.60;;;;;;4995603;28;20485;-82
2023/09/14 09:33:35;;;;;;;6.85;2.13;;;18.60;87.50;;;;;;4998150;28;20033;-85
2023/09/14 09:36:12;;;;;;;11.15;2.97;;;18.70;87.30;;;;;;4993232;28;20039;-84
2023/09/14 09:38:38;;;;;;;6.63;2.00;;;18.80;87.20;;;;;;4994317;28;20492;-84
2023/09/14 09:41:09;;;;;;;10.02;2.33;;;18.80;87.00;;;;;;4992807;28;20022;-83
2023/09/14 09:43:35;;;;;;;6.50;2.28;;;18.90;86.90;;;;;;4992405;28;20567;-82
2023/09/14 09:46:01;;;;;;;6.88;2.20;;;19.00;86.70;;;;;;4998262;28;20035;-83
2023/09/14 09:48:28;;;;;;;8.02;2.13;;;19.20;86.60;;;;;;4996170;28;20030;-84
2023/09/14 09:50:55;;;;;;;7.95;2.40;;;19.20;86.30;;;;;;4994527;28;20027;-85
2023/09/14 09:53:21;;;;;;;6.63;2.03;;;19.40;86.00;;;;;;4996310;28;20027;-83
2023/09/14 09:55:47;;;;;;;5.97;1.80;;;19.40;85.50;;;;;;4994037;28;20035;-84
2023/09/14 09:58:16;;;;;;;5.78;1.60;;;19.50;85.00;;;;;;4992312;28;20054;-83
2023/09/14 10:00:42;;;;;;;8.15;2.30;;;19.50;84.40;;;;;;4991062;28;20258;-85
2023/09/14 10:03:08;;;;;;;10.43;2.08;;;19.60;84.10;;;;;;4993940;28;20038;-83
2023/09/14 10:05:38;;;;;;;5.25;1.85;;;19.70;84.00;;;;;;4997489;28;20447;-84
2023/09/14 10:08:20;;;;;;;7.63;1.98;;;19.70;83.40;;;;;;4994065;28;20033;-84
2023/09/14 10:10:51;;;;;;;7.15;2.00;;;19.80;82.90;;;;;;4983612;28;20022;-83
2023/09/14 10:13:24;;;;;;;9.40;2.55;;;19.80;82.40;;;;;;4999761;28;20057;-84
2023/09/14 10:15:54;;;;;;;8.20;2.00;;;19.80;82.00;;;;;;4996380;28;20156;-84
2023/09/14 10:18:25;;;;;;;5.10;1.88;;;19.90;81.80;;;;;;4994355;28;20053;-84
2023/09/14 10:20:53;;;;;;;6.53;2.08;;;19.80;81.50;;;;;;4996057;28;20038;-84
2023/09/14 10:23:20;;;;;;;5.28;1.80;;;19.80;81.30;;;;;;4995590;28;20054;-84
2023/09/14 10:25:47;;;;;;;4.85;1.70;;;19.90;80.90;;;;;;4994565;28;20034;-84
2023/09/14 10:28:14;;;;;;;7.20;2.10;;;19.90;80.70;;;;;;4997178;28;20068;-85
2023/09/14 10:30:42;;;;;;;6.88;2.22;;;19.90;80.50;;;;;;4982328;28;20031;-84
2023/09/14 10:33:09;;;;;;;6.57;1.95;;;20.10;80.60;;;;;;4997454;28;20026;-84
2023/09/14 10:35:38;;;;;;;4.40;1.63;;;20.40;80.50;;;;;;5001212;28;20029;-84
2023/09/14 10:38:05;;;;;;;6.50;1.80;;;20.60;80.10;;;;;;5009486;28;20368;-83
2023/09/14 10:40:34;;;;;;;5.85;1.63;;;21.00;79.70;;;;;;5010303;28;20029;-85
2023/09/14 10:43:00;;;;;;;6.57;1.60;;;21.20;79.40;;;;;;5009817;28;20564;-84
2023/09/14 10:45:33;;;;;;;7.30;1.45;;;21.60;79.00;;;;;;5010219;28;20027;-85
2023/09/14 10:47:59;;;;;;;;;;;21.90;78.30;;;;;;5009511;28;20069;-82
2023/09/14 10:50:25;;;;;;;5.25;1.30;;;22.20;77.90;;;;;;5009500;28;19905;-81
2023/09/14 10:52:53;;;;;;;6.95;1.40;;;22.50;77.80;;;;;;5005613;28;20081;-83
2023/09/14 10:55:23;;;;;;;6.80;1.40;;;22.70;76.10;;;;;;4997236;28;20026;-82
2023/09/14 10:57:51;;;;;;;4.78;1.00;;;22.80;74.40;;;;;;4978640;28;20117;-84
2023/09/14 11:00:33;;;;;;;2.53;0.90;;;22.80;73.20;;;;;;4996933;28;20034;-84
2023/09/14 11:02:59;;;;;;;2.28;0.82;;;22.70;72.00;;;;;;4996582;28;20376;-84
2023/09/14 11:05:38;;;;;;;3.58;1.02;;;22.70;71.60;;;;;;4997303;28;20026;-84
2023/09/14 11:08:03;;;;;;;5.30;1.40;;;22.60;71.00;;;;;;4997554;28;20638;-83
2023/09/14 11:10:29;;;;;;;4.63;1.48;;;22.50;70.80;;;;;;4996423;28;20062;-84
2023/09/14 11:13:20;;;;;;;4.40;1.02;;;22.50;70.50;;;;;;4997560;28;20040;-84
2023/09/14 11:15:55;;;;;;;5.47;0.98;;;22.40;70.10;;;;;;4995870;28;20022;-84
2023/09/14 11:18:35;;;;;;;5.63;1.30;;;22.40;69.90;;;;;;4978320;28;20044;-84
2023/09/14 11:21:00;;;;;;;3.95;1.20;;;22.30;69.70;;;;;;4988774;28;20588;-85
2023/09/14 11:23:36;;;;;;;5.07;1.05;;;22.30;69.80;;;;;;4976074;28;20126;-83
2023/09/14 11:26:02;;;;;;;4.43;1.27;;;22.20;69.70;;;;;;4974994;28;20127;-83
2023/09/14 11:28:30;;;;;;;4.57;1.15;;;22.20;69.70;;;;;;4974975;28;20176;-84
2023/09/14 11:30:56;;;;;;;4.75;1.00;;;22.20;69.50;;;;;;4975993;28;20366;-84
2023/09/14 11:33:22;;;;;;;3.97;1.17;;;22.20;69.30;;;;;;4975744;28;20511;-83
2023/09/14 11:35:51;;;;;;;4.57;1.42;;;22.10;69.20;;;;;;4975903;28;20023;-84
2023/09/14 11:38:19;;;;;;;5.85;1.50;;;22.10;68.90;;;;;;4976933;28;20035;-84
2023/09/14 11:40:45;;;;;;;4.40;1.10;;;22.10;68.60;;;;;;4958449;28;20384;-83
2023/09/14 11:43:21;;;;;;;3.88;1.23;;;22.10;68.50;;;;;;4975674;28;20053;-83
2023/09/14 11:45:49;;;;;;;7.57;1.27;;;22.10;68.90;;;;;;4975231;28;20113;-84
2023/09/14 11:48:16;;;;;;;5.28;1.10;;;22.10;68.70;;;;;;4975547;28;20681;-83
2023/09/14 11:50:44;;;;;;;4.97;1.23;;;22.10;68.50;;;;;;4958897;28;20449;-84
2023/09/14 11:53:13;;;;;;;6.60;1.42;;;22.20;68.20;;;;;;4975631;28;20030;-84
2023/09/14 11:55:39;;;;;;;4.05;1.05;;;22.20;67.80;;;;;;4975511;28;20571;-84
2023/09/14 11:58:05;;;;;;;2.92;1.25;;;22.30;67.60;;;;;;4977492;28;20023;-83
2023/09/14 12:00:45;;;;;;;4.63;0.98;;;22.30;67.60;;;;;;4976083;28;20030;-84
2023/09/14 12:03:11;;;;;;;3.50;0.93;;;22.30;67.40;;;;;;4975375;28;20081;-85
2023/09/14 12:05:37;;;;;;;3.35;1.27;;;22.40;67.40;;;;;;4975661;28;20055;-85
2023/09/14 12:08:13;;;;;;;5.00;1.25;;;22.50;67.60;;;;;;4975530;28;20031;-85
2023/09/14 12:10:40;;;;;;;4.93;1.00;;;22.80;67.60;;;;;;4975800;28;20037;-85
2023/09/14 12:13:14;;;;;;;5.45;1.08;;;23.30;67.70;;;;;;4975959;28;20042;-85
2023/09/14 12:15:45;;;;;;;3.22;0.95;;;23.80;66.90;;;;;;4975140;28;20358;-85
2023/09/14 12:18:11;;;;;;;2.83;1.05;;;24.20;66.20;;;;;;4976764;28;20030;-86
2023/09/14 12:20:42;;;;;;;4.75;1.20;;;24.60;65.90;;;;;;4976972;28;20050;-85
2023/09/14 12:23:09;;;;;;;3.80;1.13;;;25.00;64.80;;;;;;4958782;28;20146;-84
2023/09/14 12:25:37;;;;;;;3.65;1.33;;;25.30;64.10;;;;;;4978402;28;20493;-86
2023/09/14 12:28:04;;;;;;;4.05;1.33;;;25.50;63.50;;;;;;4979137;28;20366;-83
2023/09/14 12:30:31;;;;;;;5.03;1.10;;;25.80;62.80;;;;;;4976533;28;20033;-85
2023/09/14 12:32:57;;;;;;;3.67;1.08;;;26.00;62.10;;;;;;4976446;28;20074;-85
2023/09/14 12:35:24;;;;;;;3.78;1.42;;;26.20;61.50;;;;;;4976164;28;20179;-85
2023/09/14 12:37:52;;;;;;;2.78;1.08;;;26.60;60.90;;;;;;4975812;28;20037;-84
2023/09/14 12:40:18;;;;;;;2.08;0.85;;;27.00;60.20;;;;;;4957608;28;20037;-83
2023/09/14 12:42:44;;;;;;;5.60;1.60;;;27.40;59.60;;;;;;4978715;28;20047;-82
2023/09/14 12:45:15;;;;;;;3.58;1.23;;;27.70;58.90;;;;;;4976895;28;20037;-83